sensor_id;sensor_type;location;lat;lon;timestamp;pressure;altitude;pressure_sealevel;temperature;humidity
83448;BME280;73376;45.472;-73.568;2023-11-19T00:02:15;100760.72;;;3.72;44.77
83448;BME280;73376;45.472;-73.568;2023-11-19T00:04:44;100802.09;;;3.89;44.71
83448;BME280;73376;45.472;-73.568;2023-11-19T00:07:10;100785.91;;;3.81;45.25
83448;BME280;73376;45.472;-73.568;2023-11-19T00:09:37;100774.72;;;3.84;44.86
83448;BME280;73376;45.472;-73.568;2023-11-19T00:12:05;100758.19;;;3.78;44.73
83448;BME280;73376;45.472;-73.568;2023-11-19T00:14:32;100720.34;;;3.62;45.08
83448;BME280;73376;45.472;-73.568;2023-11-19T00:16:58;100776.75;;;3.98;44.94
83448;BME280;73376;45.472;-73.568;2023-11-19T00:19:24;100764.22;;;3.97;45.14
83448;BME280;73376;45.472;-73.568;2023-11-19T00:21:52;100755.59;;;4.01;45.29
83448;BME280;73376;45.472;-73.568;2023-11-19T00:24:18;100755.09;;;3.98;45.25
83448;BME280;73376;45.472;-73.568;2023-11-19T00:26:44;100717.28;;;3.73;45.01
83448;BME280;73376;45.472;-73.568;2023-11-19T00:29:10;100728.25;;;3.80;45.02
83448;BME280;73376;45.472;-73.568;2023-11-19T00:31:36;100731.97;;;3.79;45.00
83448;BME280;73376;45.472;-73.568;2023-11-19T00:34:04;100723.06;;;3.62;45.27
83448;BME280;73376;45.472;-73.568;2023-11-19T00:36:35;100737.41;;;3.71;45.25
83448;BME280;73376;45.472;-73.568;2023-11-19T00:39:00;100737.06;;;3.66;45.39
83448;BME280;73376;45.472;-73.568;2023-11-19T00:41:27;100723.72;;;3.56;45.36
83448;BME280;73376;45.472;-73.568;2023-11-19T00:43:53;100698.59;;;3.39;45.98
83448;BME280;73376;45.472;-73.568;2023-11-19T00:46:19;100732.34;;;3.60;46.12
83448;BME280;73376;45.472;-73.568;2023-11-19T00:48:47;100718.66;;;3.53;46.42
83448;BME280;73376;45.472;-73.568;2023-11-19T00:51:13;100697.25;;;3.35;47.16
83448;BME280;73376;45.472;-73.568;2023-11-19T00:53:39;100716.16;;;3.51;47.37
83448;BME280;73376;45.472;-73.568;2023-11-19T00:56:06;100688.66;;;3.40;48.00
83448;BME280;73376;45.472;-73.568;2023-11-19T00:58:32;100715.63;;;3.56;47.64
83448;BME280;73376;45.472;-73.568;2023-11-19T01:00:58;100678.16;;;3.37;47.39
83448;BME280;73376;45.472;-73.568;2023-11-19T01:03:25;100657.91;;;3.24;47.39
83448;BME280;73376;45.472;-73.568;2023-11-19T01:05:51;100705.34;;;3.51;47.90
83448;BME280;73376;45.472;-73.568;2023-11-19T01:08:18;100689.63;;;3.39;47.74
83448;BME280;73376;45.472;-73.568;2023-11-19T01:10:44;100620.78;;;3.02;47.92
83448;BME280;73376;45.472;-73.568;2023-11-19T01:13:10;100698.25;;;3.50;47.84
83448;BME280;73376;45.472;-73.568;2023-11-19T01:15:39;100680.00;;;3.44;47.77
83448;BME280;73376;45.472;-73.568;2023-11-19T01:18:06;100693.84;;;3.49;47.31
83448;BME280;73376;45.472;-73.568;2023-11-19T01:20:37;100666.69;;;3.35;47.48
83448;BME280;73376;45.472;-73.568;2023-11-19T01:23:03;100700.13;;;3.50;47.91
83448;BME280;73376;45.472;-73.568;2023-11-19T01:25:29;100672.44;;;3.40;47.88
83448;BME280;73376;45.472;-73.568;2023-11-19T01:27:58;100663.47;;;3.31;47.70
83448;BME280;73376;45.472;-73.568;2023-11-19T01:30:24;100671.56;;;3.39;47.71
83448;BME280;73376;45.472;-73.568;2023-11-19T01:32:50;100679.00;;;3.45;48.12
83448;BME280;73376;45.472;-73.568;2023-11-19T01:35:16;100675.25;;;3.46;47.89
83448;BME280;73376;45.472;-73.568;2023-11-19T01:37:42;100668.53;;;3.42;48.25
83448;BME280;73376;45.472;-73.568;2023-11-19T01:40:08;100667.38;;;3.37;48.37
83448;BME280;73376;45.472;-73.568;2023-11-19T01:42:40;100664.13;;;3.41;48.45
83448;BME280;73376;45.472;-73.568;2023-11-19T01:45:10;100665.81;;;3.42;48.45
83448;BME280;73376;45.472;-73.568;2023-11-19T01:47:47;100622.44;;;3.19;48.71
83448;BME280;73376;45.472;-73.568;2023-11-19T01:50:13;100655.53;;;3.38;48.94
83448;BME280;73376;45.472;-73.568;2023-11-19T01:52:39;100619.09;;;3.17;48.81
83448;BME280;73376;45.472;-73.568;2023-11-19T01:55:06;100618.75;;;3.20;49.01
83448;BME280;73376;45.472;-73.568;2023-11-19T01:57:34;100641.88;;;3.31;48.87
83448;BME280;73376;45.472;-73.568;2023-11-19T02:00:03;100536.44;;;2.75;49.05
83448;BME280;73376;45.472;-73.568;2023-11-19T02:02:29;100634.25;;;3.35;49.04
83448;BME280;73376;45.472;-73.568;2023-11-19T02:04:56;100632.56;;;3.34;49.40
83448;BME280;73376;45.472;-73.568;2023-11-19T02:07:24;100578.94;;;2.98;49.76
83448;BME280;73376;45.472;-73.568;2023-11-19T02:09:51;100621.44;;;3.20;50.00
83448;BME280;73376;45.472;-73.568;2023-11-19T02:12:17;100626.00;;;3.28;50.15
83448;BME280;73376;45.472;-73.568;2023-11-19T02:14:43;100621.94;;;3.24;50.42
83448;BME280;73376;45.472;-73.568;2023-11-19T02:17:31;100589.06;;;3.04;50.40
83448;BME280;73376;45.472;-73.568;2023-11-19T02:19:57;100609.47;;;3.15;50.52
83448;BME280;73376;45.472;-73.568;2023-11-19T02:22:24;100616.38;;;3.17;50.71
83448;BME280;73376;45.472;-73.568;2023-11-19T02:24:54;100606.75;;;3.15;50.80
83448;BME280;73376;45.472;-73.568;2023-11-19T02:30:06;100565.59;;;2.88;51.07
83448;BME280;73376;45.472;-73.568;2023-11-19T02:32:35;100558.53;;;2.87;51.44
83448;BME280;73376;45.472;-73.568;2023-11-19T02:35:07;100589.88;;;3.04;51.26
83448;BME280;73376;45.472;-73.568;2023-11-19T02:37:38;100552.97;;;2.80;51.24
83448;BME280;73376;45.472;-73.568;2023-11-19T02:40:05;100557.50;;;2.88;51.34
83448;BME280;73376;45.472;-73.568;2023-11-19T02:42:34;100559.38;;;2.88;51.61
83448;BME280;73376;45.472;-73.568;2023-11-19T02:45:02;100573.19;;;3.01;51.46
83448;BME280;73376;45.472;-73.568;2023-11-19T02:47:31;100527.66;;;2.73;51.51
83448;BME280;73376;45.472;-73.568;2023-11-19T02:49:57;100548.41;;;2.89;51.59
83448;BME280;73376;45.472;-73.568;2023-11-19T02:52:23;100568.81;;;3.00;51.67
83448;BME280;73376;45.472;-73.568;2023-11-19T02:54:50;100530.69;;;2.78;51.53
83448;BME280;73376;45.472;-73.568;2023-11-19T02:57:16;100539.47;;;2.80;51.55
83448;BME280;73376;45.472;-73.568;2023-11-19T02:59:45;100504.38;;;2.64;51.50
83448;BME280;73376;45.472;-73.568;2023-11-19T03:02:11;100561.38;;;2.94;51.61
83448;BME280;73376;45.472;-73.568;2023-11-19T03:04:40;100560.56;;;2.93;51.84
83448;BME280;73376;45.472;-73.568;2023-11-19T03:07:06;100557.34;;;2.81;51.75
83448;BME280;73376;45.472;-73.568;2023-11-19T03:09:35;100553.47;;;2.92;51.82
83448;BME280;73376;45.472;-73.568;2023-11-19T03:12:01;100558.88;;;2.92;52.06
83448;BME280;73376;45.472;-73.568;2023-11-19T03:14:27;100510.28;;;2.68;52.17
83448;BME280;73376;45.472;-73.568;2023-11-19T03:16:54;100536.94;;;2.79;51.91
83448;BME280;73376;45.472;-73.568;2023-11-19T03:19:20;100535.25;;;2.78;51.95
83448;BME280;73376;45.472;-73.568;2023-11-19T03:21:46;100555.16;;;2.93;52.00
83448;BME280;73376;45.472;-73.568;2023-11-19T03:24:13;100551.44;;;2.86;51.99
83448;BME280;73376;45.472;-73.568;2023-11-19T03:26:39;100527.31;;;2.76;52.04
83448;BME280;73376;45.472;-73.568;2023-11-19T03:29:05;100548.91;;;2.93;52.01
83448;BME280;73376;45.472;-73.568;2023-11-19T03:31:32;100548.06;;;2.92;52.24
83448;BME280;73376;45.472;-73.568;2023-11-19T03:33:57;100546.22;;;2.93;52.55
83448;BME280;73376;45.472;-73.568;2023-11-19T03:36:23;100541.66;;;2.93;52.38
83448;BME280;73376;45.472;-73.568;2023-11-19T03:38:52;100500.84;;;2.72;52.36
83448;BME280;73376;45.472;-73.568;2023-11-19T03:41:21;100540.63;;;2.94;52.69
83448;BME280;73376;45.472;-73.568;2023-11-19T03:43:46;100537.09;;;2.94;52.66
83448;BME280;73376;45.472;-73.568;2023-11-19T03:46:22;100529.66;;;2.96;52.65
83448;BME280;73376;45.472;-73.568;2023-11-19T03:48:48;100497.44;;;2.78;52.63
83448;BME280;73376;45.472;-73.568;2023-11-19T03:51:17;100523.78;;;2.92;53.22
83448;BME280;73376;45.472;-73.568;2023-11-19T03:53:50;100490.88;;;2.64;53.25
83448;BME280;73376;45.472;-73.568;2023-11-19T03:56:16;100540.47;;;2.96;52.88
83448;BME280;73376;45.472;-73.568;2023-11-19T03:58:42;100543.81;;;2.98;53.51
83448;BME280;73376;45.472;-73.568;2023-11-19T04:01:11;100541.31;;;2.96;53.50
83448;BME280;73376;45.472;-73.568;2023-11-19T04:03:40;100538.59;;;2.96;53.73
83448;BME280;73376;45.472;-73.568;2023-11-19T04:06:07;100509.09;;;2.87;54.09
83448;BME280;73376;45.472;-73.568;2023-11-19T04:08:32;100501.84;;;2.79;54.21
83448;BME280;73376;45.472;-73.568;2023-11-19T04:11:00;100514.66;;;2.93;55.02
83448;BME280;73376;45.472;-73.568;2023-11-19T04:13:26;100514.31;;;2.88;54.84
83448;BME280;73376;45.472;-73.568;2023-11-19T04:15:52;100488.84;;;2.74;55.20
83448;BME280;73376;45.472;-73.568;2023-11-19T04:18:18;100484.66;;;2.72;54.92
83448;BME280;73376;45.472;-73.568;2023-11-19T04:20:44;100503.84;;;2.85;55.28
83448;BME280;73376;45.472;-73.568;2023-11-19T04:23:10;100442.84;;;2.51;55.49
83448;BME280;73376;45.472;-73.568;2023-11-19T04:25:37;100484.13;;;2.76;55.70
83448;BME280;73376;45.472;-73.568;2023-11-19T04:28:03;100486.84;;;2.76;56.43
83448;BME280;73376;45.472;-73.568;2023-11-19T04:30:32;100479.91;;;2.74;56.65
83448;BME280;73376;45.472;-73.568;2023-11-19T04:32:58;100475.69;;;2.71;57.04
83448;BME280;73376;45.472;-73.568;2023-11-19T04:35:24;100445.19;;;2.54;56.89
83448;BME280;73376;45.472;-73.568;2023-11-19T04:37:51;100439.66;;;2.56;56.87
83448;BME280;73376;45.472;-73.568;2023-11-19T04:40:23;100458.16;;;2.67;56.93
83448;BME280;73376;45.472;-73.568;2023-11-19T04:42:49;100457.16;;;2.68;57.21
83448;BME280;73376;45.472;-73.568;2023-11-19T04:45:15;100446.03;;;2.63;57.16
83448;BME280;73376;45.472;-73.568;2023-11-19T04:47:42;100449.72;;;2.70;57.51
83448;BME280;73376;45.472;-73.568;2023-11-19T04:50:08;100453.25;;;2.71;57.56
83448;BME280;73376;45.472;-73.568;2023-11-19T04:52:38;100413.53;;;2.48;58.08
83448;BME280;73376;45.472;-73.568;2023-11-19T04:55:07;100408.97;;;2.49;57.80
83448;BME280;73376;45.472;-73.568;2023-11-19T04:57:37;100444.34;;;2.70;58.25
83448;BME280;73376;45.472;-73.568;2023-11-19T05:00:04;100441.97;;;2.67;57.73
83448;BME280;73376;45.472;-73.568;2023-11-19T05:02:30;100450.06;;;2.67;58.30
83448;BME280;73376;45.472;-73.568;2023-11-19T05:04:57;100380.50;;;2.30;58.44
83448;BME280;73376;45.472;-73.568;2023-11-19T05:07:25;100435.25;;;2.63;58.07
83448;BME280;73376;45.472;-73.568;2023-11-19T05:09:54;100424.78;;;2.60;58.25
83448;BME280;73376;45.472;-73.568;2023-11-19T05:12:20;100424.78;;;2.60;59.18
83448;BME280;73376;45.472;-73.568;2023-11-19T05:14:46;100433.22;;;2.57;59.03
83448;BME280;73376;45.472;-73.568;2023-11-19T05:17:18;100423.13;;;2.43;59.46
83448;BME280;73376;45.472;-73.568;2023-11-19T05:19:49;100434.09;;;2.49;59.34
83448;BME280;73376;45.472;-73.568;2023-11-19T05:22:17;100436.09;;;2.47;59.63
83448;BME280;73376;45.472;-73.568;2023-11-19T05:24:43;100400.06;;;2.24;59.22
83448;BME280;73376;45.472;-73.568;2023-11-19T05:27:09;100433.25;;;2.41;59.76
83448;BME280;73376;45.472;-73.568;2023-11-19T05:29:39;100397.03;;;2.19;59.60
83448;BME280;73376;45.472;-73.568;2023-11-19T05:32:07;100398.06;;;2.18;59.44
83448;BME280;73376;45.472;-73.568;2023-11-19T05:34:33;100404.94;;;2.20;59.27
83448;BME280;73376;45.472;-73.568;2023-11-19T05:36:59;100370.91;;;2.03;60.17
83448;BME280;73376;45.472;-73.568;2023-11-19T05:39:25;100415.72;;;2.36;59.83
83448;BME280;73376;45.472;-73.568;2023-11-19T05:41:51;100409.81;;;2.33;59.90
83448;BME280;73376;45.472;-73.568;2023-11-19T05:44:17;100410.16;;;2.38;60.42
83448;BME280;73376;45.472;-73.568;2023-11-19T05:46:45;100414.84;;;2.44;60.21
83448;BME280;73376;45.472;-73.568;2023-11-19T05:49:11;100405.44;;;2.40;60.11
83448;BME280;73376;45.472;-73.568;2023-11-19T05:51:39;100375.28;;;2.28;60.30
83448;BME280;73376;45.472;-73.568;2023-11-19T05:54:08;100401.53;;;2.51;60.77
83448;BME280;73376;45.472;-73.568;2023-11-19T05:56:35;100402.03;;;2.54;60.43
83448;BME280;73376;45.472;-73.568;2023-11-19T05:59:02;100385.03;;;2.46;62.09
83448;BME280;73376;45.472;-73.568;2023-11-19T06:01:42;100377.63;;;2.40;61.10
83448;BME280;73376;45.472;-73.568;2023-11-19T06:04:08;100376.28;;;2.35;61.38
83448;BME280;73376;45.472;-73.568;2023-11-19T06:06:36;100371.91;;;2.34;61.24
83448;BME280;73376;45.472;-73.568;2023-11-19T06:09:02;100365.16;;;2.30;61.43
83448;BME280;73376;45.472;-73.568;2023-11-19T06:11:28;100379.78;;;2.44;61.68
83448;BME280;73376;45.472;-73.568;2023-11-19T06:13:57;100390.09;;;2.49;62.02
83448;BME280;73376;45.472;-73.568;2023-11-19T06:16:23;100337.88;;;2.17;61.98
83448;BME280;73376;45.472;-73.568;2023-11-19T06:18:49;100382.47;;;2.44;62.23
83448;BME280;73376;45.472;-73.568;2023-11-19T06:21:15;100382.19;;;2.39;62.43
83448;BME280;73376;45.472;-73.568;2023-11-19T06:23:41;100383.69;;;2.42;62.27
83448;BME280;73376;45.472;-73.568;2023-11-19T06:26:10;100346.63;;;2.19;62.07
83448;BME280;73376;45.472;-73.568;2023-11-19T06:28:36;100347.13;;;2.23;62.58
83448;BME280;73376;45.472;-73.568;2023-11-19T06:31:03;100365.00;;;2.32;62.39
83448;BME280;73376;45.472;-73.568;2023-11-19T06:33:31;100340.06;;;2.13;62.86
83448;BME280;73376;45.472;-73.568;2023-11-19T06:35:58;100377.31;;;2.34;62.68
83448;BME280;73376;45.472;-73.568;2023-11-19T06:38:25;100375.78;;;2.32;63.23
83448;BME280;73376;45.472;-73.568;2023-11-19T06:40:53;100375.78;;;2.32;63.24
83448;BME280;73376;45.472;-73.568;2023-11-19T06:43:19;100369.56;;;2.31;62.81
83448;BME280;73376;45.472;-73.568;2023-11-19T06:45:45;100376.44;;;2.34;63.28
83448;BME280;73376;45.472;-73.568;2023-11-19T06:48:11;100351.50;;;2.24;63.55
83448;BME280;73376;45.472;-73.568;2023-11-19T06:50:42;100354.06;;;2.25;63.96
83448;BME280;73376;45.472;-73.568;2023-11-19T06:53:07;100369.88;;;2.36;63.15
83448;BME280;73376;45.472;-73.568;2023-11-19T06:55:35;100359.41;;;2.33;62.98
83448;BME280;73376;45.472;-73.568;2023-11-19T06:58:05;100374.06;;;2.39;63.25
83448;BME280;73376;45.472;-73.568;2023-11-19T07:00:32;100366.81;;;2.40;62.91
83448;BME280;73376;45.472;-73.568;2023-11-19T07:02:59;100328.94;;;2.17;62.92
83448;BME280;73376;45.472;-73.568;2023-11-19T07:05:25;100326.91;;;2.19;63.02
83448;BME280;73376;45.472;-73.568;2023-11-19T07:07:51;100320.34;;;2.13;62.72
83448;BME280;73376;45.472;-73.568;2023-11-19T07:10:17;100312.78;;;2.08;62.96
83448;BME280;73376;45.472;-73.568;2023-11-19T07:12:46;100342.41;;;2.25;63.53
83448;BME280;73376;45.472;-73.568;2023-11-19T07:15:15;100359.91;;;2.37;63.61
83448;BME280;73376;45.472;-73.568;2023-11-19T07:17:45;100363.44;;;2.46;63.47
83448;BME280;73376;45.472;-73.568;2023-11-19T07:20:13;100341.38;;;2.34;63.63
83448;BME280;73376;45.472;-73.568;2023-11-19T07:22:45;100328.06;;;2.32;63.76
83448;BME280;73376;45.472;-73.568;2023-11-19T07:25:14;100313.41;;;2.27;63.46
83448;BME280;73376;45.472;-73.568;2023-11-19T07:27:43;100315.09;;;2.28;63.44
83448;BME280;73376;45.472;-73.568;2023-11-19T07:30:09;100353.28;;;2.56;63.95
83448;BME280;73376;45.472;-73.568;2023-11-19T07:32:35;100327.03;;;2.42;63.94
83448;BME280;73376;45.472;-73.568;2023-11-19T07:35:03;100350.09;;;2.52;63.71
83448;BME280;73376;45.472;-73.568;2023-11-19T07:37:32;100318.25;;;2.40;63.78
83448;BME280;73376;45.472;-73.568;2023-11-19T07:39:58;100329.22;;;2.46;64.31
83448;BME280;73376;45.472;-73.568;2023-11-19T07:42:26;100315.06;;;2.36;64.12
83448;BME280;73376;45.472;-73.568;2023-11-19T07:44:52;100302.28;;;2.30;64.15
83448;BME280;73376;45.472;-73.568;2023-11-19T07:47:20;100352.75;;;2.60;64.12
83448;BME280;73376;45.472;-73.568;2023-11-19T07:49:51;100328.53;;;2.44;63.89
83448;BME280;73376;45.472;-73.568;2023-11-19T07:52:17;100361.19;;;2.57;64.57
83448;BME280;73376;45.472;-73.568;2023-11-19T07:54:43;100358.50;;;2.57;64.34
83448;BME280;73376;45.472;-73.568;2023-11-19T07:57:11;100279.91;;;2.13;64.66
83448;BME280;73376;45.472;-73.568;2023-11-19T07:59:40;100341.47;;;2.57;64.28
83448;BME280;73376;45.472;-73.568;2023-11-19T08:02:05;100334.41;;;2.48;64.54
83448;BME280;73376;45.472;-73.568;2023-11-19T08:04:34;100343.34;;;2.56;64.69
83448;BME280;73376;45.472;-73.568;2023-11-19T08:07:00;100341.31;;;2.58;64.78
83448;BME280;73376;45.472;-73.568;2023-11-19T08:09:26;100342.31;;;2.66;64.51
83448;BME280;73376;45.472;-73.568;2023-11-19T08:11:52;100341.47;;;2.65;64.83
83448;BME280;73376;45.472;-73.568;2023-11-19T08:14:21;100343.78;;;2.68;64.66
83448;BME280;73376;45.472;-73.568;2023-11-19T08:16:49;100321.75;;;2.56;64.64
83448;BME280;73376;45.472;-73.568;2023-11-19T08:19:18;100338.53;;;2.75;64.94
83448;BME280;73376;45.472;-73.568;2023-11-19T08:21:45;100337.88;;;2.73;64.68
83448;BME280;73376;45.472;-73.568;2023-11-19T08:24:11;100322.38;;;2.67;64.66
83448;BME280;73376;45.472;-73.568;2023-11-19T08:26:37;100327.09;;;2.73;64.18
83448;BME280;73376;45.472;-73.568;2023-11-19T08:29:03;100323.22;;;2.75;64.37
83448;BME280;73376;45.472;-73.568;2023-11-19T08:31:31;100297.81;;;2.53;64.44
83448;BME280;73376;45.472;-73.568;2023-11-19T08:33:57;100317.66;;;2.69;64.58
83448;BME280;73376;45.472;-73.568;2023-11-19T08:36:23;100332.13;;;2.76;64.32
83448;BME280;73376;45.472;-73.568;2023-11-19T08:38:49;100339.34;;;2.83;64.44
83448;BME280;73376;45.472;-73.568;2023-11-19T08:41:17;100304.03;;;2.62;64.29
83448;BME280;73376;45.472;-73.568;2023-11-19T08:43:47;100351.66;;;2.86;64.51
83448;BME280;73376;45.472;-73.568;2023-11-19T08:46:13;100334.63;;;2.86;64.54
83448;BME280;73376;45.472;-73.568;2023-11-19T08:48:42;100310.91;;;2.73;64.44
83448;BME280;73376;45.472;-73.568;2023-11-19T08:51:08;100337.63;;;2.91;64.05
83448;BME280;73376;45.472;-73.568;2023-11-19T08:53:34;100335.59;;;2.93;64.34
83448;BME280;73376;45.472;-73.568;2023-11-19T08:56:01;100296.72;;;2.71;64.10
83448;BME280;73376;45.472;-73.568;2023-11-19T08:58:28;100319.75;;;2.90;64.43
83448;BME280;73376;45.472;-73.568;2023-11-19T09:00:54;100325.09;;;2.98;64.22
83448;BME280;73376;45.472;-73.568;2023-11-19T09:03:22;100326.13;;;2.97;64.16
83448;BME280;73376;45.472;-73.568;2023-11-19T09:05:49;100318.69;;;2.99;64.11
83448;BME280;73376;45.472;-73.568;2023-11-19T09:08:15;100307.25;;;2.89;64.42
83448;BME280;73376;45.472;-73.568;2023-11-19T09:10:41;100325.09;;;2.98;64.49
83448;BME280;73376;45.472;-73.568;2023-11-19T09:13:06;100323.78;;;2.94;64.84
83448;BME280;73376;45.472;-73.568;2023-11-19T09:15:33;100332.19;;;2.99;64.93
83448;BME280;73376;45.472;-73.568;2023-11-19T09:17:59;100334.72;;;3.00;64.59
83448;BME280;73376;45.472;-73.568;2023-11-19T09:20:25;100322.88;;;3.01;64.61
83448;BME280;73376;45.472;-73.568;2023-11-19T09:22:53;100252.28;;;2.58;65.35
83448;BME280;73376;45.472;-73.568;2023-11-19T09:25:19;100293.47;;;2.83;65.60
83448;BME280;73376;45.472;-73.568;2023-11-19T09:27:45;100304.88;;;2.94;65.39
83448;BME280;73376;45.472;-73.568;2023-11-19T09:30:12;100313.28;;;2.99;65.18
83448;BME280;73376;45.472;-73.568;2023-11-19T09:32:38;100321.34;;;3.07;65.22
83448;BME280;73376;45.472;-73.568;2023-11-19T09:35:05;100304.53;;;2.97;64.95
83448;BME280;73376;45.472;-73.568;2023-11-19T09:37:32;100311.25;;;3.01;64.61
83448;BME280;73376;45.472;-73.568;2023-11-19T09:39:58;100335.69;;;3.07;65.53
83448;BME280;73376;45.472;-73.568;2023-11-19T09:42:24;100337.91;;;3.04;65.48
83448;BME280;73376;45.472;-73.568;2023-11-19T09:44:50;100340.59;;;3.04;65.31
83448;BME280;73376;45.472;-73.568;2023-11-19T09:47:17;100318.25;;;2.87;65.85
83448;BME280;73376;45.472;-73.568;2023-11-19T09:49:45;100342.97;;;3.07;65.66
83448;BME280;73376;45.472;-73.568;2023-11-19T09:52:13;100316.72;;;2.93;65.67
83448;BME280;73376;45.472;-73.568;2023-11-19T09:54:39;100343.09;;;3.14;65.48
83448;BME280;73376;45.472;-73.568;2023-11-19T09:57:08;100327.09;;;3.04;65.33
83448;BME280;73376;45.472;-73.568;2023-11-19T09:59:35;100357.72;;;3.19;65.41
83448;BME280;73376;45.472;-73.568;2023-11-19T10:02:05;100298.94;;;2.98;65.32
83448;BME280;73376;45.472;-73.568;2023-11-19T10:04:34;100344.06;;;3.21;65.42
83448;BME280;73376;45.472;-73.568;2023-11-19T10:07:02;100324.69;;;3.09;65.24
83448;BME280;73376;45.472;-73.568;2023-11-19T10:09:28;100335.28;;;3.19;65.25
83448;BME280;73376;45.472;-73.568;2023-11-19T10:11:54;100312.22;;;3.08;65.25
83448;BME280;73376;45.472;-73.568;2023-11-19T10:14:23;100337.56;;;3.07;65.47
83448;BME280;73376;45.472;-73.568;2023-11-19T10:16:49;100335.16;;;3.12;65.73
83448;BME280;73376;45.472;-73.568;2023-11-19T10:19:21;100324.47;;;2.96;65.71
83448;BME280;73376;45.472;-73.568;2023-11-19T10:21:50;100342.13;;;3.06;65.93
83448;BME280;73376;45.472;-73.568;2023-11-19T10:24:31;100344.63;;;3.08;65.89
83448;BME280;73376;45.472;-73.568;2023-11-19T10:27:00;100337.78;;;2.97;66.05
83448;BME280;73376;45.472;-73.568;2023-11-19T10:29:29;100330.06;;;2.86;66.09
83448;BME280;73376;45.472;-73.568;2023-11-19T10:31:56;100342.00;;;2.92;66.12
83448;BME280;73376;45.472;-73.568;2023-11-19T10:34:26;100312.28;;;2.60;66.49
83448;BME280;73376;45.472;-73.568;2023-11-19T10:36:53;100356.56;;;2.82;66.82
83448;BME280;73376;45.472;-73.568;2023-11-19T10:39:21;100348.00;;;2.79;66.57
83448;BME280;73376;45.472;-73.568;2023-11-19T10:41:49;100331.84;;;2.63;66.34
83448;BME280;73376;45.472;-73.568;2023-11-19T10:44:34;100331.19;;;2.60;66.54
83448;BME280;73376;45.472;-73.568;2023-11-19T10:47:06;100320.97;;;2.40;67.26
83448;BME280;73376;45.472;-73.568;2023-11-19T10:49:34;100346.06;;;2.48;67.44
83448;BME280;73376;45.472;-73.568;2023-11-19T10:52:05;100365.13;;;2.55;67.56
83448;BME280;73376;45.472;-73.568;2023-11-19T10:54:34;100336.50;;;2.29;67.60
83448;BME280;73376;45.472;-73.568;2023-11-19T10:57:01;100361.88;;;2.51;68.32
83448;BME280;73376;45.472;-73.568;2023-11-19T10:59:33;100341.38;;;2.34;68.20
83448;BME280;73376;45.472;-73.568;2023-11-19T11:02:03;100374.72;;;2.49;68.36
83448;BME280;73376;45.472;-73.568;2023-11-19T11:04:33;100383.47;;;2.59;68.09
83448;BME280;73376;45.472;-73.568;2023-11-19T11:07:05;100375.88;;;2.63;67.75
83448;BME280;73376;45.472;-73.568;2023-11-19T11:09:33;100382.78;;;2.66;67.85
83448;BME280;73376;45.472;-73.568;2023-11-19T11:11:59;100395.94;;;2.69;67.71
83448;BME280;73376;45.472;-73.568;2023-11-19T11:14:27;100395.06;;;2.68;68.02
83448;BME280;73376;45.472;-73.568;2023-11-19T11:16:53;100389.03;;;2.66;67.71
83448;BME280;73376;45.472;-73.568;2023-11-19T11:19:22;100386.97;;;2.68;67.51
83448;BME280;73376;45.472;-73.568;2023-11-19T11:21:53;100375.38;;;2.59;67.73
83448;BME280;73376;45.472;-73.568;2023-11-19T11:33:21;100382.69;;;2.34;68.41
83448;BME280;73376;45.472;-73.568;2023-11-19T11:36:19;100404.94;;;2.36;68.28
83448;BME280;73376;45.472;-73.568;2023-11-19T11:38:48;100381.72;;;2.11;68.08
83448;BME280;73376;45.472;-73.568;2023-11-19T11:41:24;100409.84;;;2.25;68.08
83448;BME280;73376;45.472;-73.568;2023-11-19T11:43:54;100412.69;;;2.23;68.04
83448;BME280;73376;45.472;-73.568;2023-11-19T11:49:05;100424.69;;;2.29;68.17
83448;BME280;73376;45.472;-73.568;2023-11-19T11:54:10;100428.53;;;2.26;67.88
83448;BME280;73376;45.472;-73.568;2023-11-19T11:56:39;100399.59;;;2.04;67.60
83448;BME280;73376;45.472;-73.568;2023-11-19T11:59:23;100418.09;;;2.07;68.07
83448;BME280;73376;45.472;-73.568;2023-11-19T12:01:58;100419.47;;;2.11;67.61
83448;BME280;73376;45.472;-73.568;2023-11-19T12:04:28;100433.44;;;2.15;67.95
83448;BME280;73376;45.472;-73.568;2023-11-19T12:07:12;100422.66;;;2.06;67.80
83448;BME280;73376;45.472;-73.568;2023-11-19T12:09:42;100434.13;;;2.08;67.97
83448;BME280;73376;45.472;-73.568;2023-11-19T12:20:04;100448.78;;;1.98;68.21
83448;BME280;73376;45.472;-73.568;2023-11-19T12:22:45;100458.88;;;1.96;68.37
83448;BME280;73376;45.472;-73.568;2023-11-19T12:25:13;100415.03;;;1.69;68.55
83448;BME280;73376;45.472;-73.568;2023-11-19T12:27:51;100456.38;;;1.94;68.51
83448;BME280;73376;45.472;-73.568;2023-11-19T12:30:25;100471.16;;;1.90;68.41
83448;BME280;73376;45.472;-73.568;2023-11-19T12:32:52;100463.25;;;1.88;68.42
83448;BME280;73376;45.472;-73.568;2023-11-19T12:35:22;100446.53;;;1.69;68.70
83448;BME280;73376;45.472;-73.568;2023-11-19T12:37:50;100455.50;;;1.77;68.52
83448;BME280;73376;45.472;-73.568;2023-11-19T12:42:47;100474.19;;;1.79;68.49
83448;BME280;73376;45.472;-73.568;2023-11-19T12:45:14;100453.78;;;1.68;68.22
83448;BME280;73376;45.472;-73.568;2023-11-19T12:47:42;100448.91;;;1.63;68.08
83448;BME280;73376;45.472;-73.568;2023-11-19T12:50:12;100473.69;;;1.83;68.58
83448;BME280;73376;45.472;-73.568;2023-11-19T12:52:41;100488.53;;;1.87;68.52
83448;BME280;73376;45.472;-73.568;2023-11-19T12:55:29;100489.88;;;1.92;68.76
83448;BME280;73376;45.472;-73.568;2023-11-19T12:57:56;100503.72;;;2.05;68.46
83448;BME280;73376;45.472;-73.568;2023-11-19T13:00:25;100505.94;;;2.18;68.13
83448;BME280;73376;45.472;-73.568;2023-11-19T13:02:53;100475.22;;;2.10;67.70
83448;BME280;73376;45.472;-73.568;2023-11-19T13:08:02;100513.69;;;2.37;66.87
83448;BME280;73376;45.472;-73.568;2023-11-19T13:10:31;100490.25;;;2.29;66.87
83448;BME280;73376;45.472;-73.568;2023-11-19T13:13:07;100516.38;;;2.45;66.53
83448;BME280;73376;45.472;-73.568;2023-11-19T13:15:37;100494.63;;;2.39;66.42